sensor_id;sensor_type;location;lat;lon;timestamp;P1;durP1;ratioP1;P2;durP2;ratioP2
48367;SDS011;34173;47.446;18.912;2023-05-27T09:25:06;7.60;;;3.80;;
48367;SDS011;34173;47.446;18.912;2023-05-27T15:38:16;12.77;;;6.87;;
48367;SDS011;34173;47.446;18.912;2023-05-27T15:40:44;10.65;;;5.97;;
48367;SDS011;34173;47.446;18.912;2023-05-27T15:43:13;16.20;;;6.75;;
48367;SDS011;34173;47.446;18.912;2023-05-27T15:45:42;11.35;;;5.80;;
48367;SDS011;34173;47.446;18.912;2023-05-27T15:48:30;10.65;;;6.20;;
48367;SDS011;34173;47.446;18.912;2023-05-27T15:50:58;10.55;;;6.12;;
48367;SDS011;34173;47.446;18.912;2023-05-27T15:53:26;11.93;;;6.30;;
48367;SDS011;34173;47.446;18.912;2023-05-27T15:55:53;11.85;;;6.47;;
48367;SDS011;34173;47.446;18.912;2023-05-27T15:58:21;11.18;;;6.20;;
48367;SDS011;34173;47.446;18.912;2023-05-27T16:00:49;10.98;;;6.40;;
48367;SDS011;34173;47.446;18.912;2023-05-27T16:03:16;10.48;;;6.50;;
48367;SDS011;34173;47.446;18.912;2023-05-27T16:05:45;9.73;;;6.20;;
48367;SDS011;34173;47.446;18.912;2023-05-27T16:08:12;10.95;;;6.55;;
48367;SDS011;34173;47.446;18.912;2023-05-27T16:10:50;12.45;;;6.60;;
48367;SDS011;34173;47.446;18.912;2023-05-27T16:13:22;10.93;;;6.30;;
48367;SDS011;34173;47.446;18.912;2023-05-27T16:15:51;11.23;;;6.50;;
48367;SDS011;34173;47.446;18.912;2023-05-27T16:18:19;10.85;;;6.80;;
48367;SDS011;34173;47.446;18.912;2023-05-27T16:20:47;9.32;;;6.00;;
48367;SDS011;34173;47.446;18.912;2023-05-27T16:23:17;10.57;;;6.13;;
48367;SDS011;34173;47.446;18.912;2023-05-27T16:25:45;9.38;;;5.75;;
48367;SDS011;34173;47.446;18.912;2023-05-27T16:28:12;10.17;;;5.60;;
48367;SDS011;34173;47.446;18.912;2023-05-27T16:30:40;10.65;;;5.53;;
48367;SDS011;34173;47.446;18.912;2023-05-27T16:33:07;11.57;;;5.90;;
48367;SDS011;34173;47.446;18.912;2023-05-27T16:35:35;8.77;;;5.28;;
48367;SDS011;34173;47.446;18.912;2023-05-27T16:38:03;14.43;;;5.90;;
48367;SDS011;34173;47.446;18.912;2023-05-27T16:40:30;12.93;;;6.07;;
48367;SDS011;34173;47.446;18.912;2023-05-27T16:42:58;10.23;;;5.78;;
48367;SDS011;34173;47.446;18.912;2023-05-27T16:45:26;9.95;;;5.85;;
48367;SDS011;34173;47.446;18.912;2023-05-27T16:47:54;10.15;;;6.03;;
48367;SDS011;34173;47.446;18.912;2023-05-27T16:50:22;10.80;;;5.62;;
48367;SDS011;34173;47.446;18.912;2023-05-27T16:52:50;17.08;;;6.60;;
48367;SDS011;34173;47.446;18.912;2023-05-27T16:55:18;9.30;;;5.90;;
48367;SDS011;34173;47.446;18.912;2023-05-27T16:57:46;9.00;;;5.37;;
48367;SDS011;34173;47.446;18.912;2023-05-27T17:00:14;8.82;;;5.28;;
48367;SDS011;34173;47.446;18.912;2023-05-27T17:02:43;10.50;;;5.90;;
48367;SDS011;34173;47.446;18.912;2023-05-27T17:05:11;168.32;;;13.98;;
48367;SDS011;34173;47.446;18.912;2023-05-27T17:07:39;9.65;;;5.40;;
48367;SDS011;34173;47.446;18.912;2023-05-27T17:10:06;10.10;;;5.47;;
48367;SDS011;34173;47.446;18.912;2023-05-27T17:12:34;11.02;;;5.62;;
48367;SDS011;34173;47.446;18.912;2023-05-27T17:15:02;10.97;;;5.87;;
48367;SDS011;34173;47.446;18.912;2023-05-27T17:17:31;12.27;;;6.15;;
48367;SDS011;34173;47.446;18.912;2023-05-27T17:19:58;10.93;;;5.87;;
48367;SDS011;34173;47.446;18.912;2023-05-27T17:22:26;11.02;;;5.97;;
48367;SDS011;34173;47.446;18.912;2023-05-27T17:24:54;10.32;;;5.90;;
48367;SDS011;34173;47.446;18.912;2023-05-27T17:27:22;11.10;;;5.72;;
48367;SDS011;34173;47.446;18.912;2023-05-27T17:29:49;10.35;;;5.75;;
48367;SDS011;34173;47.446;18.912;2023-05-27T17:32:17;10.05;;;5.70;;
48367;SDS011;34173;47.446;18.912;2023-05-27T17:34:44;12.10;;;5.25;;
48367;SDS011;34173;47.446;18.912;2023-05-27T17:37:12;11.60;;;5.68;;
48367;SDS011;34173;47.446;18.912;2023-05-27T17:39:39;13.82;;;5.78;;
48367;SDS011;34173;47.446;18.912;2023-05-27T17:42:07;10.85;;;5.55;;
48367;SDS011;34173;47.446;18.912;2023-05-27T17:44:35;8.50;;;5.20;;
48367;SDS011;34173;47.446;18.912;2023-05-27T17:47:03;9.65;;;5.20;;
48367;SDS011;34173;47.446;18.912;2023-05-27T17:49:30;8.27;;;5.10;;
48367;SDS011;34173;47.446;18.912;2023-05-27T17:51:58;9.98;;;5.50;;
48367;SDS011;34173;47.446;18.912;2023-05-27T17:54:33;8.93;;;5.60;;
48367;SDS011;34173;47.446;18.912;2023-05-27T17:57:00;11.30;;;6.00;;
48367;SDS011;34173;47.446;18.912;2023-05-27T17:59:28;8.60;;;5.25;;
48367;SDS011;34173;47.446;18.912;2023-05-27T18:01:55;14.05;;;5.70;;
48367;SDS011;34173;47.446;18.912;2023-05-27T18:04:25;10.65;;;5.90;;
48367;SDS011;34173;47.446;18.912;2023-05-27T18:06:52;9.45;;;5.70;;
48367;SDS011;34173;47.446;18.912;2023-05-27T18:09:20;11.07;;;5.60;;
48367;SDS011;34173;47.446;18.912;2023-05-27T18:11:48;10.18;;;5.62;;
48367;SDS011;34173;47.446;18.912;2023-05-27T18:14:16;12.82;;;5.78;;
48367;SDS011;34173;47.446;18.912;2023-05-27T18:16:43;10.07;;;5.10;;
48367;SDS011;34173;47.446;18.912;2023-05-27T18:19:11;9.88;;;5.53;;
48367;SDS011;34173;47.446;18.912;2023-05-27T18:21:39;9.02;;;5.22;;
48367;SDS011;34173;47.446;18.912;2023-05-27T18:24:07;8.63;;;5.00;;
48367;SDS011;34173;47.446;18.912;2023-05-27T18:26:36;10.60;;;5.40;;
48367;SDS011;34173;47.446;18.912;2023-05-27T18:29:03;9.32;;;5.30;;
48367;SDS011;34173;47.446;18.912;2023-05-27T18:31:33;11.00;;;5.35;;
48367;SDS011;34173;47.446;18.912;2023-05-27T18:34:01;9.65;;;5.32;;
48367;SDS011;34173;47.446;18.912;2023-05-27T18:36:29;10.02;;;6.18;;
48367;SDS011;34173;47.446;18.912;2023-05-27T18:38:58;12.50;;;5.75;;
48367;SDS011;34173;47.446;18.912;2023-05-27T18:41:26;9.55;;;5.35;;
48367;SDS011;34173;47.446;18.912;2023-05-27T18:43:54;8.93;;;5.50;;
48367;SDS011;34173;47.446;18.912;2023-05-27T18:46:21;9.25;;;5.05;;
48367;SDS011;34173;47.446;18.912;2023-05-27T18:48:49;10.07;;;5.57;;
48367;SDS011;34173;47.446;18.912;2023-05-27T18:51:17;11.15;;;5.65;;
48367;SDS011;34173;47.446;18.912;2023-05-27T18:53:44;9.20;;;5.57;;
48367;SDS011;34173;47.446;18.912;2023-05-27T18:56:12;9.70;;;6.57;;
48367;SDS011;34173;47.446;18.912;2023-05-27T18:58:39;12.05;;;8.02;;
48367;SDS011;34173;47.446;18.912;2023-05-27T19:01:07;10.77;;;6.62;;
48367;SDS011;34173;47.446;18.912;2023-05-27T19:03:35;10.80;;;6.40;;
48367;SDS011;34173;47.446;18.912;2023-05-27T19:06:02;10.80;;;6.50;;
48367;SDS011;34173;47.446;18.912;2023-05-27T19:08:30;11.98;;;6.50;;
48367;SDS011;34173;47.446;18.912;2023-05-27T19:10:58;11.65;;;6.57;;
48367;SDS011;34173;47.446;18.912;2023-05-27T19:13:26;10.77;;;6.28;;
48367;SDS011;34173;47.446;18.912;2023-05-27T19:15:54;11.40;;;6.03;;
48367;SDS011;34173;47.446;18.912;2023-05-27T19:18:21;11.05;;;6.40;;
48367;SDS011;34173;47.446;18.912;2023-05-27T19:20:49;10.45;;;6.03;;
48367;SDS011;34173;47.446;18.912;2023-05-27T19:23:17;11.63;;;6.70;;
48367;SDS011;34173;47.446;18.912;2023-05-27T19:25:45;13.23;;;6.57;;
48367;SDS011;34173;47.446;18.912;2023-05-27T19:28:13;12.90;;;6.72;;
48367;SDS011;34173;47.446;18.912;2023-05-27T19:30:40;11.77;;;7.10;;
48367;SDS011;34173;47.446;18.912;2023-05-27T19:33:08;11.63;;;7.10;;
48367;SDS011;34173;47.446;18.912;2023-05-27T19:35:37;12.05;;;7.30;;
48367;SDS011;34173;47.446;18.912;2023-05-27T19:38:05;12.20;;;7.60;;
48367;SDS011;34173;47.446;18.912;2023-05-27T19:40:33;13.80;;;7.87;;
48367;SDS011;34173;47.446;18.912;2023-05-27T19:43:01;13.55;;;7.00;;
48367;SDS011;34173;47.446;18.912;2023-05-27T19:45:29;13.93;;;6.93;;
48367;SDS011;34173;47.446;18.912;2023-05-27T19:47:59;13.68;;;6.95;;
48367;SDS011;34173;47.446;18.912;2023-05-27T19:50:27;14.30;;;6.78;;
48367;SDS011;34173;47.446;18.912;2023-05-27T19:52:54;11.90;;;6.55;;
48367;SDS011;34173;47.446;18.912;2023-05-27T19:55:22;11.30;;;6.37;;
48367;SDS011;34173;47.446;18.912;2023-05-27T19:57:49;11.98;;;6.95;;
48367;SDS011;34173;47.446;18.912;2023-05-27T20:00:17;13.07;;;7.18;;
48367;SDS011;34173;47.446;18.912;2023-05-27T20:02:45;14.18;;;6.37;;
48367;SDS011;34173;47.446;18.912;2023-05-27T20:05:13;12.55;;;6.43;;
48367;SDS011;34173;47.446;18.912;2023-05-27T20:07:41;13.48;;;7.90;;
48367;SDS011;34173;47.446;18.912;2023-05-27T20:10:09;15.07;;;6.57;;
48367;SDS011;34173;47.446;18.912;2023-05-27T21:34:15;12.40;;;5.78;;
48367;SDS011;34173;47.446;18.912;2023-05-27T21:36:43;9.35;;;4.93;;
48367;SDS011;34173;47.446;18.912;2023-05-27T21:39:11;10.40;;;5.55;;
48367;SDS011;34173;47.446;18.912;2023-05-27T21:41:39;10.65;;;5.30;;
48367;SDS011;34173;47.446;18.912;2023-05-27T21:44:07;10.20;;;4.72;;
48367;SDS011;34173;47.446;18.912;2023-05-27T21:46:35;10.05;;;4.30;;
48367;SDS011;34173;47.446;18.912;2023-05-27T21:49:03;7.43;;;3.70;;
48367;SDS011;34173;47.446;18.912;2023-05-27T21:51:31;9.60;;;4.22;;
48367;SDS011;34173;47.446;18.912;2023-05-27T21:53:58;11.18;;;4.03;;
48367;SDS011;34173;47.446;18.912;2023-05-27T21:56:27;10.00;;;4.07;;
48367;SDS011;34173;47.446;18.912;2023-05-27T21:58:57;9.82;;;3.30;;
48367;SDS011;34173;47.446;18.912;2023-05-27T22:01:24;11.05;;;4.18;;
48367;SDS011;34173;47.446;18.912;2023-05-27T22:03:52;9.88;;;4.87;;
48367;SDS011;34173;47.446;18.912;2023-05-27T22:06:20;10.32;;;4.65;;
48367;SDS011;34173;47.446;18.912;2023-05-27T22:08:49;9.63;;;4.75;;
48367;SDS011;34173;47.446;18.912;2023-05-27T22:11:16;9.73;;;4.05;;
48367;SDS011;34173;47.446;18.912;2023-05-27T22:13:44;8.65;;;3.60;;
48367;SDS011;34173;47.446;18.912;2023-05-27T22:16:13;8.75;;;4.00;;
48367;SDS011;34173;47.446;18.912;2023-05-27T22:18:41;11.88;;;3.80;;
48367;SDS011;34173;47.446;18.912;2023-05-27T22:21:08;13.88;;;4.25;;
48367;SDS011;34173;47.446;18.912;2023-05-27T22:23:54;10.25;;;4.45;;
48367;SDS011;34173;47.446;18.912;2023-05-27T22:26:22;9.18;;;4.93;;
48367;SDS011;34173;47.446;18.912;2023-05-27T22:28:49;8.73;;;3.85;;
48367;SDS011;34173;47.446;18.912;2023-05-27T22:31:17;10.40;;;4.22;;
48367;SDS011;34173;47.446;18.912;2023-05-27T22:33:45;9.30;;;4.28;;
48367;SDS011;34173;47.446;18.912;2023-05-27T22:36:13;10.45;;;4.03;;
48367;SDS011;34173;47.446;18.912;2023-05-27T22:38:43;12.40;;;4.43;;
48367;SDS011;34173;47.446;18.912;2023-05-27T22:41:10;8.30;;;4.15;;
48367;SDS011;34173;47.446;18.912;2023-05-27T22:43:38;10.48;;;4.97;;
48367;SDS011;34173;47.446;18.912;2023-05-27T22:46:06;10.23;;;4.62;;
48367;SDS011;34173;47.446;18.912;2023-05-27T22:48:33;11.43;;;4.47;;
48367;SDS011;34173;47.446;18.912;2023-05-27T22:51:00;11.48;;;4.15;;
48367;SDS011;34173;47.446;18.912;2023-05-27T22:53:28;11.50;;;4.35;;
48367;SDS011;34173;47.446;18.912;2023-05-27T22:55:56;13.40;;;4.70;;
48367;SDS011;34173;47.446;18.912;2023-05-27T22:58:23;10.75;;;4.25;;
48367;SDS011;34173;47.446;18.912;2023-05-27T23:00:51;10.73;;;4.25;;
48367;SDS011;34173;47.446;18.912;2023-05-27T23:03:18;11.38;;;4.10;;
48367;SDS011;34173;47.446;18.912;2023-05-27T23:05:46;12.80;;;4.10;;
48367;SDS011;34173;47.446;18.912;2023-05-27T23:08:14;8.75;;;4.00;;
48367;SDS011;34173;47.446;18.912;2023-05-27T23:10:42;9.15;;;3.83;;
48367;SDS011;34173;47.446;18.912;2023-05-27T23:13:09;9.95;;;3.87;;
48367;SDS011;34173;47.446;18.912;2023-05-27T23:15:37;13.55;;;5.18;;
48367;SDS011;34173;47.446;18.912;2023-05-27T23:18:04;11.25;;;4.00;;
48367;SDS011;34173;47.446;18.912;2023-05-27T23:20:32;10.43;;;4.30;;
48367;SDS011;34173;47.446;18.912;2023-05-27T23:23:00;8.85;;;3.80;;
48367;SDS011;34173;47.446;18.912;2023-05-27T23:25:27;10.38;;;4.20;;
48367;SDS011;34173;47.446;18.912;2023-05-27T23:27:55;11.05;;;4.47;;
48367;SDS011;34173;47.446;18.912;2023-05-27T23:30:22;12.90;;;5.05;;
48367;SDS011;34173;47.446;18.912;2023-05-27T23:32:50;11.25;;;4.50;;
48367;SDS011;34173;47.446;18.912;2023-05-27T23:35:18;9.60;;;4.32;;
48367;SDS011;34173;47.446;18.912;2023-05-27T23:37:47;10.25;;;4.50;;
48367;SDS011;34173;47.446;18.912;2023-05-27T23:40:17;10.32;;;4.22;;
48367;SDS011;34173;47.446;18.912;2023-05-27T23:42:44;9.70;;;4.15;;
48367;SDS011;34173;47.446;18.912;2023-05-27T23:45:14;15.77;;;4.10;;
48367;SDS011;34173;47.446;18.912;2023-05-27T23:47:42;9.90;;;4.50;;
48367;SDS011;34173;47.446;18.912;2023-05-27T23:50:09;8.98;;;3.75;;
48367;SDS011;34173;47.446;18.912;2023-05-27T23:52:38;7.62;;;3.85;;
48367;SDS011;34173;47.446;18.912;2023-05-27T23:55:06;11.50;;;4.45;;
48367;SDS011;34173;47.446;18.912;2023-05-27T23:57:34;10.05;;;4.30;;
